sensor_id;sensor_type;location;lat;lon;timestamp;P1;P2;P0
84428;PMS7003;74637;52.170;21.034;2024-02-23T00:00:47;27.00;20.00;14.00
84428;PMS7003;74637;52.170;21.034;2024-02-23T00:03:34;18.50;17.00;10.50
84428;PMS7003;74637;52.170;21.034;2024-02-23T00:06:03;18.00;15.00;11.00
84428;PMS7003;74637;52.170;21.034;2024-02-23T00:08:30;17.00;14.00;9.50
84428;PMS7003;74637;52.170;21.034;2024-02-23T00:10:56;22.33;19.00;12.00
84428;PMS7003;74637;52.170;21.034;2024-02-23T00:13:23;16.00;16.00;12.00
84428;PMS7003;74637;52.170;21.034;2024-02-23T00:15:50;18.00;14.50;11.00
84428;PMS7003;74637;52.170;21.034;2024-02-23T00:18:16;18.67;14.67;9.00
84428;PMS7003;74637;52.170;21.034;2024-02-23T00:20:43;17.00;14.00;9.00
84428;PMS7003;74637;52.170;21.034;2024-02-23T00:23:10;18.00;14.00;10.00
84428;PMS7003;74637;52.170;21.034;2024-02-23T00:25:36;16.00;13.00;10.00
84428;PMS7003;74637;52.170;21.034;2024-02-23T00:28:03;18.00;14.00;11.00
84428;PMS7003;74637;52.170;21.034;2024-02-23T00:30:30;20.00;17.00;10.00
84428;PMS7003;74637;52.170;21.034;2024-02-23T00:32:57;19.00;17.00;11.00
84428;PMS7003;74637;52.170;21.034;2024-02-23T00:35:23;21.00;18.00;13.00
84428;PMS7003;74637;52.170;21.034;2024-02-23T00:37:50;18.50;16.50;11.00
84428;PMS7003;74637;52.170;21.034;2024-02-23T00:40:16;16.00;14.33;10.00
84428;PMS7003;74637;52.170;21.034;2024-02-23T00:42:43;16.00;13.00;8.00
84428;PMS7003;74637;52.170;21.034;2024-02-23T00:45:09;17.00;17.00;13.00
84428;PMS7003;74637;52.170;21.034;2024-02-23T00:47:36;18.00;15.00;9.00
84428;PMS7003;74637;52.170;21.034;2024-02-23T00:50:04;15.50;13.00;10.50
84428;PMS7003;74637;52.170;21.034;2024-02-23T00:52:31;19.50;18.00;12.00
84428;PMS7003;74637;52.170;21.034;2024-02-23T00:54:58;22.00;18.00;11.50
84428;PMS7003;74637;52.170;21.034;2024-02-23T00:57:25;16.50;15.00;10.00
84428;PMS7003;74637;52.170;21.034;2024-02-23T00:59:56;23.00;18.33;12.00
84428;PMS7003;74637;52.170;21.034;2024-02-23T01:02:23;18.00;13.00;11.00
84428;PMS7003;74637;52.170;21.034;2024-02-23T01:04:49;20.00;20.00;12.00
84428;PMS7003;74637;52.170;21.034;2024-02-23T01:07:16;19.00;17.00;11.00
84428;PMS7003;74637;52.170;21.034;2024-02-23T01:09:43;16.50;14.00;10.00
84428;PMS7003;74637;52.170;21.034;2024-02-23T01:12:09;18.50;17.50;11.00
84428;PMS7003;74637;52.170;21.034;2024-02-23T01:14:36;19.50;18.00;13.50
84428;PMS7003;74637;52.170;21.034;2024-02-23T01:17:02;20.00;17.00;12.00
84428;PMS7003;74637;52.170;21.034;2024-02-23T01:19:29;15.75;12.50;9.75
84428;PMS7003;74637;52.170;21.034;2024-02-23T01:21:55;17.33;15.00;11.00
84428;PMS7003;74637;52.170;21.034;2024-02-23T01:26:55;18.67;18.00;12.00
84428;PMS7003;74637;52.170;21.034;2024-02-23T01:29:22;18.00;16.00;13.00
84428;PMS7003;74637;52.170;21.034;2024-02-23T01:31:49;13.50;13.00;10.50
84428;PMS7003;74637;52.170;21.034;2024-02-23T01:34:15;17.50;15.00;11.00
84428;PMS7003;74637;52.170;21.034;2024-02-23T01:36:42;18.00;17.00;10.00
84428;PMS7003;74637;52.170;21.034;2024-02-23T01:39:08;18.00;14.50;10.50
84428;PMS7003;74637;52.170;21.034;2024-02-23T01:41:35;12.00;10.00;9.00
84428;PMS7003;74637;52.170;21.034;2024-02-23T01:44:02;15.00;14.00;9.00
84428;PMS7003;74637;52.170;21.034;2024-02-23T01:46:29;16.50;15.50;10.50
84428;PMS7003;74637;52.170;21.034;2024-02-23T01:48:56;18.00;11.00;9.00
84428;PMS7003;74637;52.170;21.034;2024-02-23T01:51:24;18.00;15.00;14.00
84428;PMS7003;74637;52.170;21.034;2024-02-23T01:53:51;15.00;15.00;10.00
84428;PMS7003;74637;52.170;21.034;2024-02-23T01:56:18;14.50;14.00;9.00
84428;PMS7003;74637;52.170;21.034;2024-02-23T01:58:46;12.00;12.00;11.00
84428;PMS7003;74637;52.170;21.034;2024-02-23T02:01:14;20.00;15.00;9.00
84428;PMS7003;74637;52.170;21.034;2024-02-23T02:03:40;18.00;18.00;11.00
84428;PMS7003;74637;52.170;21.034;2024-02-23T02:06:07;18.00;14.50;9.50
84428;PMS7003;74637;52.170;21.034;2024-02-23T02:08:36;18.00;15.50;10.00
84428;PMS7003;74637;52.170;21.034;2024-02-23T02:11:04;13.50;13.00;10.00
84428;PMS7003;74637;52.170;21.034;2024-02-23T02:13:31;14.00;12.50;8.50
84428;PMS7003;74637;52.170;21.034;2024-02-23T02:16:01;14.00;13.00;10.00
84428;PMS7003;74637;52.170;21.034;2024-02-23T02:18:30;18.00;14.00;11.00
84428;PMS7003;74637;52.170;21.034;2024-02-23T02:20:57;17.00;14.00;9.00
84428;PMS7003;74637;52.170;21.034;2024-02-23T02:23:24;11.00;10.00;8.00
84428;PMS7003;74637;52.170;21.034;2024-02-23T02:25:56;13.00;13.00;9.00
84428;PMS7003;74637;52.170;21.034;2024-02-23T02:28:24;14.50;11.00;9.00
84428;PMS7003;74637;52.170;21.034;2024-02-23T02:30:51;14.50;12.50;8.00
84428;PMS7003;74637;52.170;21.034;2024-02-23T02:33:21;14.00;11.00;8.00
84428;PMS7003;74637;52.170;21.034;2024-02-23T02:35:49;10.00;8.00;5.00
84428;PMS7003;74637;52.170;21.034;2024-02-23T02:38:18;10.50;9.00;5.00
84428;PMS7003;74637;52.170;21.034;2024-02-23T02:40:45;12.00;11.50;9.00
84428;PMS7003;74637;52.170;21.034;2024-02-23T02:43:12;14.00;10.50;8.50
84428;PMS7003;74637;52.170;21.034;2024-02-23T02:45:38;15.50;12.50;9.00
84428;PMS7003;74637;52.170;21.034;2024-02-23T02:48:05;13.00;10.00;6.00
84428;PMS7003;74637;52.170;21.034;2024-02-23T02:50:32;12.00;10.00;8.00
84428;PMS7003;74637;52.170;21.034;2024-02-23T02:52:58;11.00;7.50;5.00
84428;PMS7003;74637;52.170;21.034;2024-02-23T02:55:25;10.00;10.00;8.00
84428;PMS7003;74637;52.170;21.034;2024-02-23T02:57:51;13.00;10.50;7.50
84428;PMS7003;74637;52.170;21.034;2024-02-23T03:00:18;13.00;11.00;8.00
84428;PMS7003;74637;52.170;21.034;2024-02-23T03:02:44;8.00;8.00;5.00
84428;PMS7003;74637;52.170;21.034;2024-02-23T03:05:11;10.00;8.00;6.00
84428;PMS7003;74637;52.170;21.034;2024-02-23T03:07:37;8.50;7.00;5.00
84428;PMS7003;74637;52.170;21.034;2024-02-23T03:10:04;9.00;9.00;8.00
84428;PMS7003;74637;52.170;21.034;2024-02-23T03:12:31;9.50;9.00;6.50
84428;PMS7003;74637;52.170;21.034;2024-02-23T03:14:58;10.00;9.00;5.00
84428;PMS7003;74637;52.170;21.034;2024-02-23T03:17:25;10.00;9.00;6.00
84428;PMS7003;74637;52.170;21.034;2024-02-23T03:19:51;10.00;10.00;6.00
84428;PMS7003;74637;52.170;21.034;2024-02-23T03:22:18;12.00;9.00;6.00
84428;PMS7003;74637;52.170;21.034;2024-02-23T03:24:44;7.00;6.00;5.00
84428;PMS7003;74637;52.170;21.034;2024-02-23T03:27:11;8.50;6.50;5.50
84428;PMS7003;74637;52.170;21.034;2024-02-23T03:29:38;8.00;8.00;6.50
84428;PMS7003;74637;52.170;21.034;2024-02-23T03:32:06;11.33;9.00;7.00
84428;PMS7003;74637;52.170;21.034;2024-02-23T03:34:32;9.00;9.00;6.00
84428;PMS7003;74637;52.170;21.034;2024-02-23T03:36:59;11.00;8.00;7.00
84428;PMS7003;74637;52.170;21.034;2024-02-23T03:39:28;9.00;9.00;5.50
84428;PMS7003;74637;52.170;21.034;2024-02-23T03:41:55;8.00;8.00;6.50
84428;PMS7003;74637;52.170;21.034;2024-02-23T03:44:21;12.00;8.67;6.33
84428;PMS7003;74637;52.170;21.034;2024-02-23T03:46:48;8.00;8.00;5.00
84428;PMS7003;74637;52.170;21.034;2024-02-23T03:49:14;9.00;7.00;5.00
84428;PMS7003;74637;52.170;21.034;2024-02-23T03:51:41;12.00;9.00;7.00
84428;PMS7003;74637;52.170;21.034;2024-02-23T03:54:08;7.00;6.00;4.00
84428;PMS7003;74637;52.170;21.034;2024-02-23T03:56:40;8.00;8.00;7.00
84428;PMS7003;74637;52.170;21.034;2024-02-23T03:59:08;9.00;8.00;6.00
84428;PMS7003;74637;52.170;21.034;2024-02-23T04:01:38;10.67;7.00;5.00
84428;PMS7003;74637;52.170;21.034;2024-02-23T04:04:08;8.00;5.50;5.50
84428;PMS7003;74637;52.170;21.034;2024-02-23T04:06:34;8.00;8.00;5.00
84428;PMS7003;74637;52.170;21.034;2024-02-23T04:09:01;7.67;5.00;4.00
84428;PMS7003;74637;52.170;21.034;2024-02-23T04:11:31;8.50;8.50;5.50
84428;PMS7003;74637;52.170;21.034;2024-02-23T04:13:58;9.50;7.00;4.00
84428;PMS7003;74637;52.170;21.034;2024-02-23T04:16:25;13.33;8.00;5.33
84428;PMS7003;74637;52.170;21.034;2024-02-23T04:18:52;10.50;7.50;5.00
84428;PMS7003;74637;52.170;21.034;2024-02-23T04:21:20;8.50;8.00;6.00
84428;PMS7003;74637;52.170;21.034;2024-02-23T04:23:46;8.00;8.00;5.50
84428;PMS7003;74637;52.170;21.034;2024-02-23T04:26:13;7.00;5.00;4.00
84428;PMS7003;74637;52.170;21.034;2024-02-23T04:28:40;8.00;7.50;5.50
84428;PMS7003;74637;52.170;21.034;2024-02-23T04:31:10;9.00;7.00;5.33
84428;PMS7003;74637;52.170;21.034;2024-02-23T04:33:37;5.00;5.00;3.00
84428;PMS7003;74637;52.170;21.034;2024-02-23T04:36:04;9.50;7.00;4.00
84428;PMS7003;74637;52.170;21.034;2024-02-23T04:38:33;10.00;8.00;5.00
84428;PMS7003;74637;52.170;21.034;2024-02-23T04:41:02;8.00;7.00;5.00
84428;PMS7003;74637;52.170;21.034;2024-02-23T04:43:33;11.00;9.00;5.00
84428;PMS7003;74637;52.170;21.034;2024-02-23T04:45:59;5.00;5.00;3.00
84428;PMS7003;74637;52.170;21.034;2024-02-23T04:48:26;6.67;4.33;4.00
84428;PMS7003;74637;52.170;21.034;2024-02-23T04:50:53;7.00;5.00;4.00
84428;PMS7003;74637;52.170;21.034;2024-02-23T04:53:19;8.00;7.00;4.00
84428;PMS7003;74637;52.170;21.034;2024-02-23T04:55:46;6.00;5.00;4.00
84428;PMS7003;74637;52.170;21.034;2024-02-23T04:58:12;8.00;8.00;5.00
84428;PMS7003;74637;52.170;21.034;2024-02-23T05:00:39;7.00;7.00;5.00
84428;PMS7003;74637;52.170;21.034;2024-02-23T05:03:06;3.00;3.00;3.00
84428;PMS7003;74637;52.170;21.034;2024-02-23T05:05:35;7.00;7.00;4.00
84428;PMS7003;74637;52.170;21.034;2024-02-23T05:08:02;5.00;5.00;3.50
84428;PMS7003;74637;52.170;21.034;2024-02-23T05:10:29;5.50;5.50;3.50
84428;PMS7003;74637;52.170;21.034;2024-02-23T05:12:55;7.00;4.00;4.00
84428;PMS7003;74637;52.170;21.034;2024-02-23T05:15:22;13.50;8.50;6.00
84428;PMS7003;74637;52.170;21.034;2024-02-23T05:17:49;7.00;5.00;3.00
84428;PMS7003;74637;52.170;21.034;2024-02-23T05:20:15;5.50;5.50;3.00
84428;PMS7003;74637;52.170;21.034;2024-02-23T05:22:42;10.00;5.00;4.50
84428;PMS7003;74637;52.170;21.034;2024-02-23T05:25:09;7.00;4.00;3.00
84428;PMS7003;74637;52.170;21.034;2024-02-23T05:27:36;6.50;5.25;3.25
84428;PMS7003;74637;52.170;21.034;2024-02-23T05:30:02;10.00;5.00;4.00
84428;PMS7003;74637;52.170;21.034;2024-02-23T05:32:29;8.00;5.00;3.00
84428;PMS7003;74637;52.170;21.034;2024-02-23T05:34:56;5.00;4.50;4.00
84428;PMS7003;74637;52.170;21.034;2024-02-23T05:37:23;4.50;4.00;3.00
84428;PMS7003;74637;52.170;21.034;2024-02-23T05:39:50;5.00;5.00;4.00
84428;PMS7003;74637;52.170;21.034;2024-02-23T05:42:16;7.00;5.50;4.00
84428;PMS7003;74637;52.170;21.034;2024-02-23T05:44:43;7.00;6.33;3.67
84428;PMS7003;74637;52.170;21.034;2024-02-23T05:47:10;5.50;5.50;3.00
84428;PMS7003;74637;52.170;21.034;2024-02-23T05:49:37;5.75;5.75;3.25
84428;PMS7003;74637;52.170;21.034;2024-02-23T05:52:03;5.00;1.00;0.00
84428;PMS7003;74637;52.170;21.034;2024-02-23T05:54:30;9.00;5.00;3.00
84428;PMS7003;74637;52.170;21.034;2024-02-23T05:56:56;5.50;4.00;3.00
84428;PMS7003;74637;52.170;21.034;2024-02-23T05:59:23;7.00;7.00;4.00
84428;PMS7003;74637;52.170;21.034;2024-02-23T06:01:49;8.00;4.00;3.00
84428;PMS7003;74637;52.170;21.034;2024-02-23T06:04:18;10.50;7.00;4.00
84428;PMS7003;74637;52.170;21.034;2024-02-23T06:06:44;7.00;5.00;3.00
84428;PMS7003;74637;52.170;21.034;2024-02-23T06:09:11;5.00;3.50;3.50
84428;PMS7003;74637;52.170;21.034;2024-02-23T06:11:37;6.50;5.00;4.00
84428;PMS7003;74637;52.170;21.034;2024-02-23T06:14:04;7.00;5.50;3.50
84428;PMS7003;74637;52.170;21.034;2024-02-23T06:16:31;6.50;4.00;3.00
84428;PMS7003;74637;52.170;21.034;2024-02-23T06:18:57;7.00;5.00;4.00
84428;PMS7003;74637;52.170;21.034;2024-02-23T06:21:24;8.50;4.50;3.00
84428;PMS7003;74637;52.170;21.034;2024-02-23T06:23:51;9.00;5.00;3.50
84428;PMS7003;74637;52.170;21.034;2024-02-23T06:26:18;4.00;3.00;2.33
84428;PMS7003;74637;52.170;21.034;2024-02-23T06:28:44;4.50;3.00;2.00
84428;PMS7003;74637;52.170;21.034;2024-02-23T06:31:11;4.00;4.00;3.00
84428;PMS7003;74637;52.170;21.034;2024-02-23T06:33:38;4.00;4.00;3.50
84428;PMS7003;74637;52.170;21.034;2024-02-23T06:36:07;4.00;4.00;3.00
84428;PMS7003;74637;52.170;21.034;2024-02-23T06:38:34;7.50;5.50;4.00
84428;PMS7003;74637;52.170;21.034;2024-02-23T06:41:00;8.00;6.67;5.33
84428;PMS7003;74637;52.170;21.034;2024-02-23T06:43:27;9.00;7.00;4.00
84428;PMS7003;74637;52.170;21.034;2024-02-23T06:45:53;5.00;5.00;4.00
84428;PMS7003;74637;52.170;21.034;2024-02-23T06:48:20;8.00;7.00;4.00
84428;PMS7003;74637;52.170;21.034;2024-02-23T06:50:47;7.33;5.67;4.67
84428;PMS7003;74637;52.170;21.034;2024-02-23T06:53:13;7.00;4.00;4.00
84428;PMS7003;74637;52.170;21.034;2024-02-23T06:55:40;6.50;3.50;3.00
84428;PMS7003;74637;52.170;21.034;2024-02-23T06:58:07;8.00;4.00;3.00
84428;PMS7003;74637;52.170;21.034;2024-02-23T07:00:36;4.00;4.00;2.50
84428;PMS7003;74637;52.170;21.034;2024-02-23T07:03:02;5.00;5.00;4.00
84428;PMS7003;74637;52.170;21.034;2024-02-23T07:05:30;11.00;4.00;3.00
84428;PMS7003;74637;52.170;21.034;2024-02-23T07:07:57;5.00;4.00;3.00
84428;PMS7003;74637;52.170;21.034;2024-02-23T07:10:23;5.00;3.00;3.00
84428;PMS7003;74637;52.170;21.034;2024-02-23T07:12:51;5.00;4.67;3.67
84428;PMS7003;74637;52.170;21.034;2024-02-23T07:15:22;8.00;4.00;4.00
84428;PMS7003;74637;52.170;21.034;2024-02-23T07:17:49;8.00;5.67;4.00
84428;PMS7003;74637;52.170;21.034;2024-02-23T07:20:15;9.67;6.00;4.00
84428;PMS7003;74637;52.170;21.034;2024-02-23T07:22:43;5.00;5.00;4.00
84428;PMS7003;74637;52.170;21.034;2024-02-23T07:25:11;7.00;4.00;4.00
84428;PMS7003;74637;52.170;21.034;2024-02-23T07:27:42;7.50;4.50;4.00
84428;PMS7003;74637;52.170;21.034;2024-02-23T07:30:10;4.00;4.00;3.00
84428;PMS7003;74637;52.170;21.034;2024-02-23T07:32:38;5.00;5.00;4.00
84428;PMS7003;74637;52.170;21.034;2024-02-23T07:35:04;4.50;4.25;3.00
84428;PMS7003;74637;52.170;21.034;2024-02-23T07:37:31;4.50;4.50;3.00
84428;PMS7003;74637;52.170;21.034;2024-02-23T07:39:57;8.00;4.00;3.00
84428;PMS7003;74637;52.170;21.034;2024-02-23T07:42:24;3.75;3.75;2.75
84428;PMS7003;74637;52.170;21.034;2024-02-23T07:44:51;7.00;5.00;4.00
84428;PMS7003;74637;52.170;21.034;2024-02-23T07:47:17;7.50;4.00;3.00
84428;PMS7003;74637;52.170;21.034;2024-02-23T07:49:44;5.00;4.00;3.00
84428;PMS7003;74637;52.170;21.034;2024-02-23T07:52:10;8.00;5.00;6.00
84428;PMS7003;74637;52.170;21.034;2024-02-23T07:54:37;8.50;7.00;5.50
84428;PMS7003;74637;52.170;21.034;2024-02-23T07:57:04;9.00;7.00;4.00
84428;PMS7003;74637;52.170;21.034;2024-02-23T07:59:31;4.50;4.50;3.50
84428;PMS7003;74637;52.170;21.034;2024-02-23T08:01:59;9.00;7.00;4.00
84428;PMS7003;74637;52.170;21.034;2024-02-23T08:04:25;4.50;4.50;4.00
84428;PMS7003;74637;52.170;21.034;2024-02-23T08:06:52;8.00;7.00;5.25
84428;PMS7003;74637;52.170;21.034;2024-02-23T08:09:18;8.67;6.67;4.00
84428;PMS7003;74637;52.170;21.034;2024-02-23T08:11:45;5.00;5.00;3.50
84428;PMS7003;74637;52.170;21.034;2024-02-23T08:14:12;10.00;8.00;5.50
84428;PMS7003;74637;52.170;21.034;2024-02-23T08:16:39;4.00;4.00;3.00
84428;PMS7003;74637;52.170;21.034;2024-02-23T08:19:05;8.00;7.50;5.00
84428;PMS7003;74637;52.170;21.034;2024-02-23T08:21:32;8.00;7.00;4.00
84428;PMS7003;74637;52.170;21.034;2024-02-23T08:23:58;7.00;4.50;4.00
84428;PMS7003;74637;52.170;21.034;2024-02-23T08:26:25;9.00;8.00;5.33
84428;PMS7003;74637;52.170;21.034;2024-02-23T08:28:51;6.50;6.50;4.00
84428;PMS7003;74637;52.170;21.034;2024-02-23T08:31:18;7.00;6.00;4.00
84428;PMS7003;74637;52.170;21.034;2024-02-23T08:33:45;8.00;6.50;4.50
84428;PMS7003;74637;52.170;21.034;2024-02-23T08:36:11;8.00;7.00;4.00
84428;PMS7003;74637;52.170;21.034;2024-02-23T08:38:38;10.00;8.00;6.50
84428;PMS7003;74637;52.170;21.034;2024-02-23T08:41:04;9.00;7.00;5.00
84428;PMS7003;74637;52.170;21.034;2024-02-23T08:43:31;7.33;6.33;3.00
84428;PMS7003;74637;52.170;21.034;2024-02-23T08:45:57;9.00;5.00;4.00
84428;PMS7003;74637;52.170;21.034;2024-02-23T08:48:24;7.00;7.00;4.50
84428;PMS7003;74637;52.170;21.034;2024-02-23T08:50:50;7.50;4.50;3.50
84428;PMS7003;74637;52.170;21.034;2024-02-23T08:53:17;9.50;7.00;4.50
84428;PMS7003;74637;52.170;21.034;2024-02-23T08:55:43;11.33;7.33;4.67
84428;PMS7003;74637;52.170;21.034;2024-02-23T08:58:10;5.00;5.00;3.00
84428;PMS7003;74637;52.170;21.034;2024-02-23T09:00:37;8.00;6.50;4.50
84428;PMS7003;74637;52.170;21.034;2024-02-23T09:03:04;5.00;4.00;3.00
84428;PMS7003;74637;52.170;21.034;2024-02-23T09:05:31;10.00;7.00;5.00
84428;PMS7003;74637;52.170;21.034;2024-02-23T09:07:57;8.50;7.00;4.00
84428;PMS7003;74637;52.170;21.034;2024-02-23T09:10:24;8.00;8.00;5.00
84428;PMS7003;74637;52.170;21.034;2024-02-23T09:12:50;8.00;6.50;3.50
84428;PMS7003;74637;52.170;21.034;2024-02-23T09:15:17;12.00;10.50;8.00
84428;PMS7003;74637;52.170;21.034;2024-02-23T09:17:43;6.00;4.00;4.00
84428;PMS7003;74637;52.170;21.034;2024-02-23T09:20:10;7.50;5.00;4.00
84428;PMS7003;74637;52.170;21.034;2024-02-23T09:22:37;8.00;7.00;5.00
84428;PMS7003;74637;52.170;21.034;2024-02-23T09:25:04;8.00;8.00;5.00
84428;PMS7003;74637;52.170;21.034;2024-02-23T09:27:32;9.50;5.00;4.00
84428;PMS7003;74637;52.170;21.034;2024-02-23T09:29:58;7.50;7.50;4.00
84428;PMS7003;74637;52.170;21.034;2024-02-23T09:32:25;4.25;4.25;3.00
84428;PMS7003;74637;52.170;21.034;2024-02-23T09:34:51;6.00;6.00;4.00
84428;PMS7003;74637;52.170;21.034;2024-02-23T09:37:18;5.00;4.00;3.00
84428;PMS7003;74637;52.170;21.034;2024-02-23T09:39:44;5.00;5.00;4.00
84428;PMS7003;74637;52.170;21.034;2024-02-23T09:42:11;10.00;8.00;4.00
84428;PMS7003;74637;52.170;21.034;2024-02-23T09:44:38;8.00;5.00;4.00
84428;PMS7003;74637;52.170;21.034;2024-02-23T09:47:08;9.00;6.00;4.00
84428;PMS7003;74637;52.170;21.034;2024-02-23T09:49:37;10.00;8.50;6.00
84428;PMS7003;74637;52.170;21.034;2024-02-23T09:52:09;11.50;10.00;6.00
84428;PMS7003;74637;52.170;21.034;2024-02-23T09:54:37;9.00;8.00;5.00
84428;PMS7003;74637;52.170;21.034;2024-02-23T09:57:06;9.00;7.00;4.00
84428;PMS7003;74637;52.170;21.034;2024-02-23T09:59:35;6.00;6.00;4.00
84428;PMS7003;74637;52.170;21.034;2024-02-23T10:02:03;6.00;5.00;4.00
84428;PMS7003;74637;52.170;21.034;2024-02-23T10:04:38;6.00;6.00;5.00
84428;PMS7003;74637;52.170;21.034;2024-02-23T10:07:06;9.00;6.00;5.00
84428;PMS7003;74637;52.170;21.034;2024-02-23T10:09:32;6.00;4.00;4.00
84428;PMS7003;74637;52.170;21.034;2024-02-23T10:11:59;6.00;5.50;4.00
84428;PMS7003;74637;52.170;21.034;2024-02-23T10:14:25;6.33;5.00;4.00
84428;PMS7003;74637;52.170;21.034;2024-02-23T10:16:52;13.50;10.00;6.00
84428;PMS7003;74637;52.170;21.034;2024-02-23T10:19:20;9.33;6.00;5.00
84428;PMS7003;74637;52.170;21.034;2024-02-23T10:21:47;12.00;10.00;6.00
84428;PMS7003;74637;52.170;21.034;2024-02-23T10:24:17;7.33;7.00;4.67
84428;PMS7003;74637;52.170;21.034;2024-02-23T10:26:44;8.00;7.00;4.50
84428;PMS7003;74637;52.170;21.034;2024-02-23T10:29:10;5.00;5.00;4.00
84428;PMS7003;74637;52.170;21.034;2024-02-23T10:31:37;9.00;9.00;6.00
84428;PMS7003;74637;52.170;21.034;2024-02-23T10:34:08;11.00;7.00;5.00
84428;PMS7003;74637;52.170;21.034;2024-02-23T10:36:41;9.00;7.33;6.00
84428;PMS7003;74637;52.170;21.034;2024-02-23T10:39:09;11.00;10.50;7.00
84428;PMS7003;74637;52.170;21.034;2024-02-23T10:41:36;6.00;6.00;5.00
84428;PMS7003;74637;52.170;21.034;2024-02-23T10:44:06;7.00;6.00;5.00
84428;PMS7003;74637;52.170;21.034;2024-02-23T10:46:34;7.00;6.00;4.00
84428;PMS7003;74637;52.170;21.034;2024-02-23T10:49:01;3.00;3.00;3.00
84428;PMS7003;74637;52.170;21.034;2024-02-23T10:51:30;9.00;5.00;3.00
84428;PMS7003;74637;52.170;21.034;2024-02-23T10:53:59;7.00;7.00;5.00
84428;PMS7003;74637;52.170;21.034;2024-02-23T10:56:26;7.00;7.00;4.33
84428;PMS7003;74637;52.170;21.034;2024-02-23T10:58:54;7.00;7.00;5.00
84428;PMS7003;74637;52.170;21.034;2024-02-23T11:01:21;7.50;5.00;4.00
84428;PMS7003;74637;52.170;21.034;2024-02-23T11:03:49;6.00;6.00;4.00
84428;PMS7003;74637;52.170;21.034;2024-02-23T11:06:19;5.00;5.00;4.00
84428;PMS7003;74637;52.170;21.034;2024-02-23T11:08:47;8.00;5.00;4.00
84428;PMS7003;74637;52.170;21.034;2024-02-23T11:11:15;6.00;6.00;4.50
84428;PMS7003;74637;52.170;21.034;2024-02-23T11:13:43;9.00;9.00;6.00
84428;PMS7003;74637;52.170;21.034;2024-02-23T11:16:20;9.00;5.00;5.00
84428;PMS7003;74637;52.170;21.034;2024-02-23T11:18:48;8.00;6.00;4.00
84428;PMS7003;74637;52.170;21.034;2024-02-23T11:21:15;8.33;6.33;5.00
84428;PMS7003;74637;52.170;21.034;2024-02-23T11:23:42;10.50;7.50;5.00
84428;PMS7003;74637;52.170;21.034;2024-02-23T11:26:10;8.00;5.00;4.00
84428;PMS7003;74637;52.170;21.034;2024-02-23T11:28:50;8.00;6.00;4.00
84428;PMS7003;74637;52.170;21.034;2024-02-23T11:31:21;11.00;9.00;5.50
84428;PMS7003;74637;52.170;21.034;2024-02-23T11:33:50;7.00;7.00;5.00
84428;PMS7003;74637;52.170;21.034;2024-02-23T11:38:53;10.00;9.00;6.00
84428;PMS7003;74637;52.170;21.034;2024-02-23T11:41:23;10.00;8.00;5.00
84428;PMS7003;74637;52.170;21.034;2024-02-23T11:43:51;9.00;7.00;5.00
84428;PMS7003;74637;52.170;21.034;2024-02-23T11:46:19;13.00;10.00;7.00
84428;PMS7003;74637;52.170;21.034;2024-02-23T11:48:46;9.67;7.00;6.00
84428;PMS7003;74637;52.170;21.034;2024-02-23T11:51:13;10.00;10.00;6.00
84428;PMS7003;74637;52.170;21.034;2024-02-23T11:53:41;12.00;8.50;6.00
84428;PMS7003;74637;52.170;21.034;2024-02-23T11:56:08;12.00;10.00;7.00
84428;PMS7003;74637;52.170;21.034;2024-02-23T11:58:36;10.00;7.50;5.00
84428;PMS7003;74637;52.170;21.034;2024-02-23T12:01:03;9.00;7.00;5.00
84428;PMS7003;74637;52.170;21.034;2024-02-23T12:03:30;15.00;10.00;9.00
84428;PMS7003;74637;52.170;21.034;2024-02-23T12:05:57;10.00;10.00;6.00
84428;PMS7003;74637;52.170;21.034;2024-02-23T12:08:25;9.25;7.75;5.50
84428;PMS7003;74637;52.170;21.034;2024-02-23T12:10:56;11.00;6.00;4.33
84428;PMS7003;74637;52.170;21.034;2024-02-23T12:13:26;11.00;7.50;7.00
84428;PMS7003;74637;52.170;21.034;2024-02-23T12:15:55;10.25;7.75;4.75
84428;PMS7003;74637;52.170;21.034;2024-02-23T12:18:22;8.00;6.00;6.00
84428;PMS7003;74637;52.170;21.034;2024-02-23T12:20:52;8.00;8.00;5.00
84428;PMS7003;74637;52.170;21.034;2024-02-23T12:23:19;10.00;10.00;9.00
84428;PMS7003;74637;52.170;21.034;2024-02-23T12:25:58;12.00;12.00;7.00
84428;PMS7003;74637;52.170;21.034;2024-02-23T12:28:25;10.00;7.00;6.00
84428;PMS7003;74637;52.170;21.034;2024-02-23T12:30:59;8.00;7.67;6.00
84428;PMS7003;74637;52.170;21.034;2024-02-23T12:33:37;12.00;11.00;8.00
84428;PMS7003;74637;52.170;21.034;2024-02-23T12:36:08;13.00;10.00;7.00
84428;PMS7003;74637;52.170;21.034;2024-02-23T12:38:36;12.00;9.00;6.00
84428;PMS7003;74637;52.170;21.034;2024-02-23T12:41:03;11.00;8.00;5.00
84428;PMS7003;74637;52.170;21.034;2024-02-23T12:43:31;8.33;6.33;4.67
84428;PMS7003;74637;52.170;21.034;2024-02-23T12:45:58;5.50;5.00;4.00
84428;PMS7003;74637;52.170;21.034;2024-02-23T12:48:24;13.00;12.00;7.50
84428;PMS7003;74637;52.170;21.034;2024-02-23T12:50:52;13.00;11.50;7.00
84428;PMS7003;74637;52.170;21.034;2024-02-23T12:53:38;12.67;11.33;7.00
84428;PMS7003;74637;52.170;21.034;2024-02-23T12:56:07;13.67;10.33;6.00
84428;PMS7003;74637;52.170;21.034;2024-02-23T12:58:36;7.00;7.00;5.00
84428;PMS7003;74637;52.170;21.034;2024-02-23T13:01:07;10.00;6.00;4.00
84428;PMS7003;74637;52.170;21.034;2024-02-23T13:03:35;7.25;6.25;5.00
84428;PMS7003;74637;52.170;21.034;2024-02-23T13:06:03;9.25;8.50;6.75
84428;PMS7003;74637;52.170;21.034;2024-02-23T13:08:31;13.50;9.50;6.50
84428;PMS7003;74637;52.170;21.034;2024-02-23T13:10:57;7.67;7.00;5.00
84428;PMS7003;74637;52.170;21.034;2024-02-23T13:13:24;16.75;11.75;8.25
84428;PMS7003;74637;52.170;21.034;2024-02-23T13:15:52;8.00;8.00;6.00
84428;PMS7003;74637;52.170;21.034;2024-02-23T13:18:20;10.00;9.00;6.00
84428;PMS7003;74637;52.170;21.034;2024-02-23T13:20:49;10.00;7.00;5.00
84428;PMS7003;74637;52.170;21.034;2024-02-23T13:23:16;13.50;9.50;5.50
84428;PMS7003;74637;52.170;21.034;2024-02-23T13:25:43;12.00;7.00;5.50
84428;PMS7003;74637;52.170;21.034;2024-02-23T13:28:10;5.67;5.67;5.00
84428;PMS7003;74637;52.170;21.034;2024-02-23T13:30:38;6.00;6.00;5.00
84428;PMS7003;74637;52.170;21.034;2024-02-23T13:33:05;11.00;6.00;5.00
84428;PMS7003;74637;52.170;21.034;2024-02-23T13:35:32;7.00;4.50;4.50
84428;PMS7003;74637;52.170;21.034;2024-02-23T13:38:00;5.50;5.50;4.00
84428;PMS7003;74637;52.170;21.034;2024-02-23T13:40:29;5.00;5.00;4.00
84428;PMS7003;74637;52.170;21.034;2024-02-23T13:42:57;8.00;6.00;4.50
84428;PMS7003;74637;52.170;21.034;2024-02-23T13:45:24;7.50;7.50;5.00
84428;PMS7003;74637;52.170;21.034;2024-02-23T13:50:28;4.00;2.00;2.00
84428;PMS7003;74637;52.170;21.034;2024-02-23T13:52:55;11.00;8.00;5.00
84428;PMS7003;74637;52.170;21.034;2024-02-23T13:55:23;4.00;4.00;3.00
84428;PMS7003;74637;52.170;21.034;2024-02-23T13:57:49;5.00;3.00;2.00
84428;PMS7003;74637;52.170;21.034;2024-02-23T14:00:16;4.00;4.00;4.00
84428;PMS7003;74637;52.170;21.034;2024-02-23T14:02:45;5.00;4.00;3.00
84428;PMS7003;74637;52.170;21.034;2024-02-23T14:05:13;4.00;4.00;3.00
84428;PMS7003;74637;52.170;21.034;2024-02-23T14:07:41;6.00;4.00;3.00
84428;PMS7003;74637;52.170;21.034;2024-02-23T14:10:07;8.50;8.25;5.00